sensor_id;sensor_type;location;lat;lon;timestamp;temperature;humidity
2441;DHT22;1231;53.988;9.470;2022-12-29T00:01:33;10.00;91.00
2441;DHT22;1231;53.988;9.470;2022-12-29T00:04:04;10.10;91.00
2441;DHT22;1231;53.988;9.470;2022-12-29T00:06:35;10.10;91.00
2441;DHT22;1231;53.988;9.470;2022-12-29T00:09:05;10.10;91.00
2441;DHT22;1231;53.988;9.470;2022-12-29T00:11:36;10.10;91.00
2441;DHT22;1231;53.988;9.470;2022-12-29T00:14:09;10.10;90.90
2441;DHT22;1231;53.988;9.470;2022-12-29T00:16:58;10.20;90.90
2441;DHT22;1231;53.988;9.470;2022-12-29T00:19:28;10.20;90.90
2441;DHT22;1231;53.988;9.470;2022-12-29T00:22:17;10.20;91.00
2441;DHT22;1231;53.988;9.470;2022-12-29T00:25:11;10.20;90.90
2441;DHT22;1231;53.988;9.470;2022-12-29T00:28:03;10.20;91.00
2441;DHT22;1231;53.988;9.470;2022-12-29T00:30:53;10.20;90.90
2441;DHT22;1231;53.988;9.470;2022-12-29T00:33:42;10.20;91.00
2441;DHT22;1231;53.988;9.470;2022-12-29T00:36:34;10.20;91.00
2441;DHT22;1231;53.988;9.470;2022-12-29T00:39:13;10.30;91.00
2441;DHT22;1231;53.988;9.470;2022-12-29T00:42:04;10.30;90.90
2441;DHT22;1231;53.988;9.470;2022-12-29T00:44:54;10.30;90.80
2441;DHT22;1231;53.988;9.470;2022-12-29T00:47:24;10.30;90.80
2441;DHT22;1231;53.988;9.470;2022-12-29T00:49:55;10.30;90.80
2441;DHT22;1231;53.988;9.470;2022-12-29T00:52:25;10.30;90.70
2441;DHT22;1231;53.988;9.470;2022-12-29T00:54:56;10.30;90.70
2441;DHT22;1231;53.988;9.470;2022-12-29T00:57:26;10.30;90.70
2441;DHT22;1231;53.988;9.470;2022-12-29T00:59:57;10.40;90.70
2441;DHT22;1231;53.988;9.470;2022-12-29T01:02:28;10.30;90.70
2441;DHT22;1231;53.988;9.470;2022-12-29T01:04:58;10.40;90.70
2441;DHT22;1231;53.988;9.470;2022-12-29T01:07:29;10.40;90.70
2441;DHT22;1231;53.988;9.470;2022-12-29T01:09:59;10.40;90.70
2441;DHT22;1231;53.988;9.470;2022-12-29T01:12:42;10.40;90.80
2441;DHT22;1231;53.988;9.470;2022-12-29T01:15:15;10.40;90.70
2441;DHT22;1231;53.988;9.470;2022-12-29T01:17:45;10.40;90.70
2441;DHT22;1231;53.988;9.470;2022-12-29T01:20:16;10.40;90.70
2441;DHT22;1231;53.988;9.470;2022-12-29T01:22:47;10.40;90.60
2441;DHT22;1231;53.988;9.470;2022-12-29T01:25:17;10.40;90.60
2441;DHT22;1231;53.988;9.470;2022-12-29T01:27:48;10.40;90.70
2441;DHT22;1231;53.988;9.470;2022-12-29T01:30:18;10.40;90.70
2441;DHT22;1231;53.988;9.470;2022-12-29T01:32:49;10.40;90.70
2441;DHT22;1231;53.988;9.470;2022-12-29T01:35:20;10.40;90.70
2441;DHT22;1231;53.988;9.470;2022-12-29T01:37:50;10.40;90.70
2441;DHT22;1231;53.988;9.470;2022-12-29T01:40:21;10.40;90.70
2441;DHT22;1231;53.988;9.470;2022-12-29T01:42:51;10.50;90.80
2441;DHT22;1231;53.988;9.470;2022-12-29T01:45:22;10.50;90.70
2441;DHT22;1231;53.988;9.470;2022-12-29T01:47:58;10.50;90.70
2441;DHT22;1231;53.988;9.470;2022-12-29T01:50:41;10.50;90.70
2441;DHT22;1231;53.988;9.470;2022-12-29T01:53:26;10.50;90.70
2441;DHT22;1231;53.988;9.470;2022-12-29T01:56:02;10.50;90.70
2441;DHT22;1231;53.988;9.470;2022-12-29T01:58:39;10.50;90.70
2441;DHT22;1231;53.988;9.470;2022-12-29T02:01:11;10.50;90.70
2441;DHT22;1231;53.988;9.470;2022-12-29T02:03:42;10.50;90.80
2441;DHT22;1231;53.988;9.470;2022-12-29T02:06:28;10.60;90.70
2441;DHT22;1231;53.988;9.470;2022-12-29T02:08:59;10.60;90.80
2441;DHT22;1231;53.988;9.470;2022-12-29T02:11:31;10.60;90.80
2441;DHT22;1231;53.988;9.470;2022-12-29T02:14:04;10.60;90.80
2441;DHT22;1231;53.988;9.470;2022-12-29T02:17:14;10.60;90.80
2441;DHT22;1231;53.988;9.470;2022-12-29T02:23:42;10.70;90.80
2441;DHT22;1231;53.988;9.470;2022-12-29T02:29:40;10.70;90.90
2441;DHT22;1231;53.988;9.470;2022-12-29T02:35:23;10.70;90.90
2441;DHT22;1231;53.988;9.470;2022-12-29T02:41:15;10.70;91.00
2441;DHT22;1231;53.988;9.470;2022-12-29T02:44:30;10.70;91.00
2441;DHT22;1231;53.988;9.470;2022-12-29T02:47:14;10.70;91.00
2441;DHT22;1231;53.988;9.470;2022-12-29T02:50:03;10.70;91.00
2441;DHT22;1231;53.988;9.470;2022-12-29T02:52:40;10.70;91.00
2441;DHT22;1231;53.988;9.470;2022-12-29T02:55:14;10.80;91.00
2441;DHT22;1231;53.988;9.470;2022-12-29T02:57:44;10.80;91.00
2441;DHT22;1231;53.988;9.470;2022-12-29T03:00:16;10.80;91.00
2441;DHT22;1231;53.988;9.470;2022-12-29T03:08:49;10.80;91.10
2441;DHT22;1231;53.988;9.470;2022-12-29T03:11:32;10.90;91.10
2441;DHT22;1231;53.988;9.470;2022-12-29T03:14:32;10.90;91.00
2441;DHT22;1231;53.988;9.470;2022-12-29T03:20:08;10.90;91.00
2441;DHT22;1231;53.988;9.470;2022-12-29T03:22:42;10.90;91.00
2441;DHT22;1231;53.988;9.470;2022-12-29T03:25:28;10.90;91.00
2441;DHT22;1231;53.988;9.470;2022-12-29T03:28:12;10.90;91.00
2441;DHT22;1231;53.988;9.470;2022-12-29T03:30:45;10.90;91.00
2441;DHT22;1231;53.988;9.470;2022-12-29T03:33:21;10.90;91.00
2441;DHT22;1231;53.988;9.470;2022-12-29T03:35:57;10.90;91.00
2441;DHT22;1231;53.988;9.470;2022-12-29T03:38:37;11.00;91.10
2441;DHT22;1231;53.988;9.470;2022-12-29T03:41:14;11.00;91.00
2441;DHT22;1231;53.988;9.470;2022-12-29T03:43:46;11.00;90.90
2441;DHT22;1231;53.988;9.470;2022-12-29T03:46:17;11.00;90.90
2441;DHT22;1231;53.988;9.470;2022-12-29T03:48:48;11.00;90.90
2441;DHT22;1231;53.988;9.470;2022-12-29T03:51:18;11.00;90.90
2441;DHT22;1231;53.988;9.470;2022-12-29T03:53:49;11.10;90.90
2441;DHT22;1231;53.988;9.470;2022-12-29T03:56:19;11.10;90.90
2441;DHT22;1231;53.988;9.470;2022-12-29T03:58:50;11.10;90.80
2441;DHT22;1231;53.988;9.470;2022-12-29T04:01:21;11.10;90.80
2441;DHT22;1231;53.988;9.470;2022-12-29T04:03:51;11.10;90.80
2441;DHT22;1231;53.988;9.470;2022-12-29T04:06:22;11.10;90.80
2441;DHT22;1231;53.988;9.470;2022-12-29T04:08:53;11.10;90.80
2441;DHT22;1231;53.988;9.470;2022-12-29T04:11:24;11.10;90.70
2441;DHT22;1231;53.988;9.470;2022-12-29T04:13:55;11.10;90.70
2441;DHT22;1231;53.988;9.470;2022-12-29T04:16:25;11.10;90.80
2441;DHT22;1231;53.988;9.470;2022-12-29T04:18:56;11.20;90.80
2441;DHT22;1231;53.988;9.470;2022-12-29T04:21:26;11.20;90.80
2441;DHT22;1231;53.988;9.470;2022-12-29T04:23:57;11.20;90.70
2441;DHT22;1231;53.988;9.470;2022-12-29T04:26:27;11.20;90.70
2441;DHT22;1231;53.988;9.470;2022-12-29T04:28:58;11.20;90.80
2441;DHT22;1231;53.988;9.470;2022-12-29T04:31:29;11.20;90.80
2441;DHT22;1231;53.988;9.470;2022-12-29T04:33:59;11.20;90.70
2441;DHT22;1231;53.988;9.470;2022-12-29T04:36:30;11.20;90.70
2441;DHT22;1231;53.988;9.470;2022-12-29T04:39:01;11.20;90.80
2441;DHT22;1231;53.988;9.470;2022-12-29T04:41:31;11.20;90.80
2441;DHT22;1231;53.988;9.470;2022-12-29T04:44:02;11.20;90.80
2441;DHT22;1231;53.988;9.470;2022-12-29T04:46:32;11.20;90.70
2441;DHT22;1231;53.988;9.470;2022-12-29T04:49:03;11.30;90.70
2441;DHT22;1231;53.988;9.470;2022-12-29T04:51:38;11.30;90.70
2441;DHT22;1231;53.988;9.470;2022-12-29T04:54:09;11.30;90.70
2441;DHT22;1231;53.988;9.470;2022-12-29T04:56:39;11.30;90.60
2441;DHT22;1231;53.988;9.470;2022-12-29T04:59:10;11.30;90.70
2441;DHT22;1231;53.988;9.470;2022-12-29T05:01:40;11.30;90.70
2441;DHT22;1231;53.988;9.470;2022-12-29T05:04:12;11.30;90.70
2441;DHT22;1231;53.988;9.470;2022-12-29T05:06:43;11.30;90.70
2441;DHT22;1231;53.988;9.470;2022-12-29T05:09:14;11.30;90.70
2441;DHT22;1231;53.988;9.470;2022-12-29T05:11:44;11.30;90.70
2441;DHT22;1231;53.988;9.470;2022-12-29T05:14:15;11.30;90.70
2441;DHT22;1231;53.988;9.470;2022-12-29T05:16:46;11.30;90.70
2441;DHT22;1231;53.988;9.470;2022-12-29T05:19:16;11.30;90.70
2441;DHT22;1231;53.988;9.470;2022-12-29T05:21:47;11.30;90.70
2441;DHT22;1231;53.988;9.470;2022-12-29T05:24:18;11.30;90.70
2441;DHT22;1231;53.988;9.470;2022-12-29T05:26:48;11.30;90.80
2441;DHT22;1231;53.988;9.470;2022-12-29T05:29:19;11.30;90.70
2441;DHT22;1231;53.988;9.470;2022-12-29T05:31:49;11.30;90.90
2441;DHT22;1231;53.988;9.470;2022-12-29T05:34:20;11.30;90.90
2441;DHT22;1231;53.988;9.470;2022-12-29T05:36:50;11.30;90.90
2441;DHT22;1231;53.988;9.470;2022-12-29T05:39:21;11.30;90.90
2441;DHT22;1231;53.988;9.470;2022-12-29T05:41:53;11.30;90.90
2441;DHT22;1231;53.988;9.470;2022-12-29T05:44:23;11.30;90.80
2441;DHT22;1231;53.988;9.470;2022-12-29T05:46:54;11.30;90.70
2441;DHT22;1231;53.988;9.470;2022-12-29T05:49:25;11.20;90.80
2441;DHT22;1231;53.988;9.470;2022-12-29T05:51:55;11.20;90.80
2441;DHT22;1231;53.988;9.470;2022-12-29T05:54:26;11.20;90.80
2441;DHT22;1231;53.988;9.470;2022-12-29T05:56:56;11.20;90.80
2441;DHT22;1231;53.988;9.470;2022-12-29T05:59:27;11.20;90.60
2441;DHT22;1231;53.988;9.470;2022-12-29T06:01:57;11.20;90.80
2441;DHT22;1231;53.988;9.470;2022-12-29T06:04:28;11.20;90.70
2441;DHT22;1231;53.988;9.470;2022-12-29T06:06:58;11.20;90.80
2441;DHT22;1231;53.988;9.470;2022-12-29T06:09:29;11.20;90.90
2441;DHT22;1231;53.988;9.470;2022-12-29T06:11:59;11.20;90.90
2441;DHT22;1231;53.988;9.470;2022-12-29T06:14:30;11.20;90.90
2441;DHT22;1231;53.988;9.470;2022-12-29T06:17:00;11.20;90.90
2441;DHT22;1231;53.988;9.470;2022-12-29T06:19:31;11.20;91.00
2441;DHT22;1231;53.988;9.470;2022-12-29T06:22:01;11.20;91.00
2441;DHT22;1231;53.988;9.470;2022-12-29T06:24:32;11.30;90.90
2441;DHT22;1231;53.988;9.470;2022-12-29T06:27:02;11.30;90.90
2441;DHT22;1231;53.988;9.470;2022-12-29T06:29:33;11.30;90.90
2441;DHT22;1231;53.988;9.470;2022-12-29T06:32:05;11.30;90.90
2441;DHT22;1231;53.988;9.470;2022-12-29T06:34:36;11.30;90.80
2441;DHT22;1231;53.988;9.470;2022-12-29T06:37:06;11.30;90.80
2441;DHT22;1231;53.988;9.470;2022-12-29T06:39:37;11.30;90.80
2441;DHT22;1231;53.988;9.470;2022-12-29T06:42:09;11.30;90.60
2441;DHT22;1231;53.988;9.470;2022-12-29T06:44:39;11.30;90.60
2441;DHT22;1231;53.988;9.470;2022-12-29T06:47:11;11.20;90.60
2441;DHT22;1231;53.988;9.470;2022-12-29T06:49:41;11.20;90.50
2441;DHT22;1231;53.988;9.470;2022-12-29T06:52:12;11.20;90.40
2441;DHT22;1231;53.988;9.470;2022-12-29T06:54:42;11.10;90.40
2441;DHT22;1231;53.988;9.470;2022-12-29T06:57:13;11.10;90.30
2441;DHT22;1231;53.988;9.470;2022-12-29T06:59:43;11.00;90.30
2441;DHT22;1231;53.988;9.470;2022-12-29T07:02:14;11.00;90.40
2441;DHT22;1231;53.988;9.470;2022-12-29T07:04:45;11.00;90.40
2441;DHT22;1231;53.988;9.470;2022-12-29T07:07:15;10.90;90.50
2441;DHT22;1231;53.988;9.470;2022-12-29T07:09:46;10.90;90.40
2441;DHT22;1231;53.988;9.470;2022-12-29T07:12:17;10.90;90.20
2441;DHT22;1231;53.988;9.470;2022-12-29T07:14:47;10.80;90.10
2441;DHT22;1231;53.988;9.470;2022-12-29T07:17:18;10.70;90.20
2441;DHT22;1231;53.988;9.470;2022-12-29T07:19:49;10.70;90.30
2441;DHT22;1231;53.988;9.470;2022-12-29T07:22:20;10.70;90.40
2441;DHT22;1231;53.988;9.470;2022-12-29T07:24:50;10.70;90.50
2441;DHT22;1231;53.988;9.470;2022-12-29T07:27:21;10.70;90.50
2441;DHT22;1231;53.988;9.470;2022-12-29T07:29:51;10.70;90.40
2441;DHT22;1231;53.988;9.470;2022-12-29T07:32:22;10.70;90.50
2441;DHT22;1231;53.988;9.470;2022-12-29T07:34:52;10.80;90.50
2441;DHT22;1231;53.988;9.470;2022-12-29T07:37:23;10.80;90.40
2441;DHT22;1231;53.988;9.470;2022-12-29T07:39:53;10.80;90.40
2441;DHT22;1231;53.988;9.470;2022-12-29T07:42:24;10.90;90.40
2441;DHT22;1231;53.988;9.470;2022-12-29T07:44:54;10.90;90.40
2441;DHT22;1231;53.988;9.470;2022-12-29T07:47:26;10.90;90.30
2441;DHT22;1231;53.988;9.470;2022-12-29T07:49:57;10.90;90.20
2441;DHT22;1231;53.988;9.470;2022-12-29T07:52:27;11.00;90.20
2441;DHT22;1231;53.988;9.470;2022-12-29T07:54:58;11.00;90.00
2441;DHT22;1231;53.988;9.470;2022-12-29T07:57:28;11.00;89.90
2441;DHT22;1231;53.988;9.470;2022-12-29T07:59:59;10.90;89.90
2441;DHT22;1231;53.988;9.470;2022-12-29T08:02:29;11.00;90.00
2441;DHT22;1231;53.988;9.470;2022-12-29T08:05:00;11.00;90.00
2441;DHT22;1231;53.988;9.470;2022-12-29T08:07:30;11.00;90.00
2441;DHT22;1231;53.988;9.470;2022-12-29T08:10:01;11.00;89.90
2441;DHT22;1231;53.988;9.470;2022-12-29T08:12:31;11.00;89.90
2441;DHT22;1231;53.988;9.470;2022-12-29T08:15:02;11.10;89.70
2441;DHT22;1231;53.988;9.470;2022-12-29T08:17:33;11.10;89.70
2441;DHT22;1231;53.988;9.470;2022-12-29T08:20:04;11.10;89.70
2441;DHT22;1231;53.988;9.470;2022-12-29T08:22:35;11.10;89.60
2441;DHT22;1231;53.988;9.470;2022-12-29T08:25:06;11.10;89.60
2441;DHT22;1231;53.988;9.470;2022-12-29T08:27:37;11.10;89.40
2441;DHT22;1231;53.988;9.470;2022-12-29T08:30:08;11.10;89.40
2441;DHT22;1231;53.988;9.470;2022-12-29T08:32:39;11.10;89.40
2441;DHT22;1231;53.988;9.470;2022-12-29T08:35:09;11.10;89.30
2441;DHT22;1231;53.988;9.470;2022-12-29T08:37:40;11.10;89.20
2441;DHT22;1231;53.988;9.470;2022-12-29T08:40:11;11.10;88.90
2441;DHT22;1231;53.988;9.470;2022-12-29T08:42:41;11.00;88.30
2441;DHT22;1231;53.988;9.470;2022-12-29T08:45:12;11.00;88.30
2441;DHT22;1231;53.988;9.470;2022-12-29T08:47:43;11.00;88.60
2441;DHT22;1231;53.988;9.470;2022-12-29T08:50:13;11.10;88.50
2441;DHT22;1231;53.988;9.470;2022-12-29T08:52:44;11.20;87.90
2441;DHT22;1231;53.988;9.470;2022-12-29T08:55:15;11.20;87.50
2441;DHT22;1231;53.988;9.470;2022-12-29T08:57:46;11.20;87.40
2441;DHT22;1231;53.988;9.470;2022-12-29T09:00:17;11.30;87.40
2441;DHT22;1231;53.988;9.470;2022-12-29T09:02:47;11.30;87.40
2441;DHT22;1231;53.988;9.470;2022-12-29T09:05:18;11.30;87.10
2441;DHT22;1231;53.988;9.470;2022-12-29T09:07:48;11.30;87.00
2441;DHT22;1231;53.988;9.470;2022-12-29T09:10:19;11.30;86.70
2441;DHT22;1231;53.988;9.470;2022-12-29T09:12:49;11.30;85.20
2441;DHT22;1231;53.988;9.470;2022-12-29T09:15:20;11.40;85.80
2441;DHT22;1231;53.988;9.470;2022-12-29T09:17:50;11.40;85.00
2441;DHT22;1231;53.988;9.470;2022-12-29T09:20:21;11.50;85.10
2441;DHT22;1231;53.988;9.470;2022-12-29T09:22:52;11.40;84.80
2441;DHT22;1231;53.988;9.470;2022-12-29T09:25:23;11.40;83.90
2441;DHT22;1231;53.988;9.470;2022-12-29T09:27:54;11.40;83.50
2441;DHT22;1231;53.988;9.470;2022-12-29T09:30:25;11.40;83.80
2441;DHT22;1231;53.988;9.470;2022-12-29T09:32:57;11.40;82.80
2441;DHT22;1231;53.988;9.470;2022-12-29T09:35:27;11.40;83.10
2441;DHT22;1231;53.988;9.470;2022-12-29T09:37:58;11.40;82.90
2441;DHT22;1231;53.988;9.470;2022-12-29T09:40:32;11.40;82.90
2441;DHT22;1231;53.988;9.470;2022-12-29T09:49:08;11.50;82.80
2441;DHT22;1231;53.988;9.470;2022-12-29T09:51:43;11.60;83.00
2441;DHT22;1231;53.988;9.470;2022-12-29T09:57:02;11.60;83.00
2441;DHT22;1231;53.988;9.470;2022-12-29T09:59:40;11.60;82.90
2441;DHT22;1231;53.988;9.470;2022-12-29T10:02:40;11.70;82.90
2441;DHT22;1231;53.988;9.470;2022-12-29T10:08:18;11.70;82.50
2441;DHT22;1231;53.988;9.470;2022-12-29T10:20:22;12.00;82.90
2441;DHT22;1231;53.988;9.470;2022-12-29T10:23:02;12.10;83.10
2441;DHT22;1231;53.988;9.470;2022-12-29T10:25:38;12.30;82.90
2441;DHT22;1231;53.988;9.470;2022-12-29T10:28:20;12.40;83.10
2441;DHT22;1231;53.988;9.470;2022-12-29T10:30:51;12.40;82.60
2441;DHT22;1231;53.988;9.470;2022-12-29T10:33:29;12.50;82.30
2441;DHT22;1231;53.988;9.470;2022-12-29T10:36:12;12.40;82.20
2441;DHT22;1231;53.988;9.470;2022-12-29T10:41:44;12.30;81.90
2441;DHT22;1231;53.988;9.470;2022-12-29T10:44:18;12.30;81.80
2441;DHT22;1231;53.988;9.470;2022-12-29T10:46:57;12.20;81.50
2441;DHT22;1231;53.988;9.470;2022-12-29T10:49:29;12.20;81.70
2441;DHT22;1231;53.988;9.470;2022-12-29T10:52:02;12.10;81.90
2441;DHT22;1231;53.988;9.470;2022-12-29T10:54:44;12.10;82.10
2441;DHT22;1231;53.988;9.470;2022-12-29T10:59:55;12.00;82.40
2441;DHT22;1231;53.988;9.470;2022-12-29T11:02:54;11.90;82.60
2441;DHT22;1231;53.988;9.470;2022-12-29T11:05:36;11.90;82.80
2441;DHT22;1231;53.988;9.470;2022-12-29T11:08:20;11.80;83.00
2441;DHT22;1231;53.988;9.470;2022-12-29T11:11:22;11.80;83.00
2441;DHT22;1231;53.988;9.470;2022-12-29T11:14:14;11.80;83.00
2441;DHT22;1231;53.988;9.470;2022-12-29T11:17:00;11.70;83.10
2441;DHT22;1231;53.988;9.470;2022-12-29T11:19:33;11.70;83.20
2441;DHT22;1231;53.988;9.470;2022-12-29T11:22:23;11.70;83.30
2441;DHT22;1231;53.988;9.470;2022-12-29T11:25:06;11.70;83.30
2441;DHT22;1231;53.988;9.470;2022-12-29T11:28:14;11.70;83.10
2441;DHT22;1231;53.988;9.470;2022-12-29T11:30:45;11.70;83.10
2441;DHT22;1231;53.988;9.470;2022-12-29T11:33:33;11.70;83.20
2441;DHT22;1231;53.988;9.470;2022-12-29T11:36:17;11.70;83.20
2441;DHT22;1231;53.988;9.470;2022-12-29T11:38:52;11.70;83.20
2441;DHT22;1231;53.988;9.470;2022-12-29T11:41:26;11.80;83.10
2441;DHT22;1231;53.988;9.470;2022-12-29T11:44:03;11.80;83.10
2441;DHT22;1231;53.988;9.470;2022-12-29T11:46:37;11.90;82.90
2441;DHT22;1231;53.988;9.470;2022-12-29T11:49:13;11.90;82.50
2441;DHT22;1231;53.988;9.470;2022-12-29T11:51:50;11.90;82.40
2441;DHT22;1231;53.988;9.470;2022-12-29T11:54:29;11.90;82.40
2441;DHT22;1231;53.988;9.470;2022-12-29T11:57:10;11.90;82.30
2441;DHT22;1231;53.988;9.470;2022-12-29T11:59:48;11.80;82.20
2441;DHT22;1231;53.988;9.470;2022-12-29T12:04:56;11.70;82.00
2441;DHT22;1231;53.988;9.470;2022-12-29T12:07:40;11.70;82.10
2441;DHT22;1231;53.988;9.470;2022-12-29T12:10:33;11.60;81.90
2441;DHT22;1231;53.988;9.470;2022-12-29T12:16:13;11.60;82.10
2441;DHT22;1231;53.988;9.470;2022-12-29T12:18:55;11.60;82.10
2441;DHT22;1231;53.988;9.470;2022-12-29T12:29:35;11.60;82.50
2441;DHT22;1231;53.988;9.470;2022-12-29T12:32:20;11.50;82.50
2441;DHT22;1231;53.988;9.470;2022-12-29T12:34:52;11.40;82.80
2441;DHT22;1231;53.988;9.470;2022-12-29T12:37:47;11.40;83.00
2441;DHT22;1231;53.988;9.470;2022-12-29T12:41:07;11.40;83.10
2441;DHT22;1231;53.988;9.470;2022-12-29T12:43:49;11.30;83.40
2441;DHT22;1231;53.988;9.470;2022-12-29T12:46:42;11.20;83.60
2441;DHT22;1231;53.988;9.470;2022-12-29T12:57:45;11.20;84.20
2441;DHT22;1231;53.988;9.470;2022-12-29T13:00:20;11.20;84.40
2441;DHT22;1231;53.988;9.470;2022-12-29T13:08:44;11.00;85.30
2441;DHT22;1231;53.988;9.470;2022-12-29T13:12:06;11.00;85.80
2441;DHT22;1231;53.988;9.470;2022-12-29T13:18:07;10.80;86.40
2441;DHT22;1231;53.988;9.470;2022-12-29T13:20:45;10.70;87.00
2441;DHT22;1231;53.988;9.470;2022-12-29T13:23:46;10.70;87.60
2441;DHT22;1231;53.988;9.470;2022-12-29T13:26:32;10.60;87.80
2441;DHT22;1231;53.988;9.470;2022-12-29T13:32:02;10.70;87.70
2441;DHT22;1231;53.988;9.470;2022-12-29T13:34:42;10.70;87.70
2441;DHT22;1231;53.988;9.470;2022-12-29T13:37:20;10.70;87.40
2441;DHT22;1231;53.988;9.470;2022-12-29T13:39:55;10.70;87.40
2441;DHT22;1231;53.988;9.470;2022-12-29T13:42:28;10.80;87.10
2441;DHT22;1231;53.988;9.470;2022-12-29T13:44:59;10.90;86.90
2441;DHT22;1231;53.988;9.470;2022-12-29T13:47:48;10.90;86.30
2441;DHT22;1231;53.988;9.470;2022-12-29T13:50:23;10.90;86.20
2441;DHT22;1231;53.988;9.470;2022-12-29T13:55:40;10.80;85.70
2441;DHT22;1231;53.988;9.470;2022-12-29T13:58:27;10.80;85.80
2441;DHT22;1231;53.988;9.470;2022-12-29T14:01:16;10.80;85.70
2441;DHT22;1231;53.988;9.470;2022-12-29T14:03:53;10.70;85.90
2441;DHT22;1231;53.988;9.470;2022-12-29T14:06:32;10.70;85.80
2441;DHT22;1231;53.988;9.470;2022-12-29T14:09:06;10.60;85.80
2441;DHT22;1231;53.988;9.470;2022-12-29T14:11:56;10.60;85.90
2441;DHT22;1231;53.988;9.470;2022-12-29T14:14:29;10.50;86.00
2441;DHT22;1231;53.988;9.470;2022-12-29T14:17:11;10.50;85.80
2441;DHT22;1231;53.988;9.470;2022-12-29T14:19:43;10.40;85.90
2441;DHT22;1231;53.988;9.470;2022-12-29T14:22:23;10.50;85.80
2441;DHT22;1231;53.988;9.470;2022-12-29T14:24:54;10.50;85.70
2441;DHT22;1231;53.988;9.470;2022-12-29T14:29:58;10.40;85.40
2441;DHT22;1231;53.988;9.470;2022-12-29T14:35:41;10.40;85.40
2441;DHT22;1231;53.988;9.470;2022-12-29T14:38:20;10.40;85.30
2441;DHT22;1231;53.988;9.470;2022-12-29T14:40:52;10.40;85.10
2441;DHT22;1231;53.988;9.470;2022-12-29T14:43:27;10.40;85.00
2441;DHT22;1231;53.988;9.470;2022-12-29T14:46:00;10.30;84.50
2441;DHT22;1231;53.988;9.470;2022-12-29T14:48:43;10.30;84.50
2441;DHT22;1231;53.988;9.470;2022-12-29T14:51:36;10.30;84.30
2441;DHT22;1231;53.988;9.470;2022-12-29T14:57:15;10.10;84.30
2441;DHT22;1231;53.988;9.470;2022-12-29T14:59:53;10.00;84.30
2441;DHT22;1231;53.988;9.470;2022-12-29T15:02:26;9.90;84.20
2441;DHT22;1231;53.988;9.470;2022-12-29T15:05:02;9.80;84.40
2441;DHT22;1231;53.988;9.470;2022-12-29T15:07:33;9.70;84.50
2441;DHT22;1231;53.988;9.470;2022-12-29T15:10:10;9.60;84.70
2441;DHT22;1231;53.988;9.470;2022-12-29T15:12:51;9.60;84.70
2441;DHT22;1231;53.988;9.470;2022-12-29T15:15:25;9.50;84.70
2441;DHT22;1231;53.988;9.470;2022-12-29T15:17:56;9.40;84.80
2441;DHT22;1231;53.988;9.470;2022-12-29T15:20:29;9.30;85.00
2441;DHT22;1231;53.988;9.470;2022-12-29T15:23:11;9.30;85.10
2441;DHT22;1231;53.988;9.470;2022-12-29T15:25:53;9.20;85.20
2441;DHT22;1231;53.988;9.470;2022-12-29T15:28:25;9.20;85.30
2441;DHT22;1231;53.988;9.470;2022-12-29T15:31:04;9.10;85.50
2441;DHT22;1231;53.988;9.470;2022-12-29T15:33:39;9.10;85.50
2441;DHT22;1231;53.988;9.470;2022-12-29T15:36:13;9.10;85.50
2441;DHT22;1231;53.988;9.470;2022-12-29T15:38:44;9.10;85.50
2441;DHT22;1231;53.988;9.470;2022-12-29T15:44:37;9.00;85.70
2441;DHT22;1231;53.988;9.470;2022-12-29T15:47:18;9.00;85.50
2441;DHT22;1231;53.988;9.470;2022-12-29T15:49:50;9.00;85.50
2441;DHT22;1231;53.988;9.470;2022-12-29T15:52:23;9.00;85.60
2441;DHT22;1231;53.988;9.470;2022-12-29T15:54:54;8.90;85.70
2441;DHT22;1231;53.988;9.470;2022-12-29T15:57:31;8.80;85.80
2441;DHT22;1231;53.988;9.470;2022-12-29T16:00:28;8.80;86.10
2441;DHT22;1231;53.988;9.470;2022-12-29T16:03:01;8.80;86.10
2441;DHT22;1231;53.988;9.470;2022-12-29T16:05:38;8.70;86.10
2441;DHT22;1231;53.988;9.470;2022-12-29T16:08:31;8.70;86.10
2441;DHT22;1231;53.988;9.470;2022-12-29T16:11:17;8.60;86.10
2441;DHT22;1231;53.988;9.470;2022-12-29T16:13:51;8.60;86.30
2441;DHT22;1231;53.988;9.470;2022-12-29T16:16:45;8.50;86.50
2441;DHT22;1231;53.988;9.470;2022-12-29T16:19:33;8.50;86.60
2441;DHT22;1231;53.988;9.470;2022-12-29T16:22:36;8.40;86.60
2441;DHT22;1231;53.988;9.470;2022-12-29T16:25:25;8.40;86.60
2441;DHT22;1231;53.988;9.470;2022-12-29T16:28:01;8.40;86.70
2441;DHT22;1231;53.988;9.470;2022-12-29T16:30:32;8.30;86.90
2441;DHT22;1231;53.988;9.470;2022-12-29T16:33:05;8.30;86.90
2441;DHT22;1231;53.988;9.470;2022-12-29T16:35:46;8.30;86.80
2441;DHT22;1231;53.988;9.470;2022-12-29T16:38:19;8.30;86.70
2441;DHT22;1231;53.988;9.470;2022-12-29T16:40:59;8.20;86.60
2441;DHT22;1231;53.988;9.470;2022-12-29T16:43:36;8.20;86.50
2441;DHT22;1231;53.988;9.470;2022-12-29T16:46:27;8.10;86.50
2441;DHT22;1231;53.988;9.470;2022-12-29T16:48:59;8.10;86.50
2441;DHT22;1231;53.988;9.470;2022-12-29T16:51:32;8.00;86.70
2441;DHT22;1231;53.988;9.470;2022-12-29T16:54:04;8.00;86.70
2441;DHT22;1231;53.988;9.470;2022-12-29T16:56:35;7.90;86.80
2441;DHT22;1231;53.988;9.470;2022-12-29T16:59:16;7.90;87.10
2441;DHT22;1231;53.988;9.470;2022-12-29T17:01:49;8.00;87.30
2441;DHT22;1231;53.988;9.470;2022-12-29T17:04:19;8.00;87.50
2441;DHT22;1231;53.988;9.470;2022-12-29T17:06:50;8.10;87.60
2441;DHT22;1231;53.988;9.470;2022-12-29T17:09:23;8.20;87.50
2441;DHT22;1231;53.988;9.470;2022-12-29T17:11:55;8.20;87.40
2441;DHT22;1231;53.988;9.470;2022-12-29T17:14:58;8.10;87.30
2441;DHT22;1231;53.988;9.470;2022-12-29T17:17:49;8.10;87.20
2441;DHT22;1231;53.988;9.470;2022-12-29T17:20:24;8.00;87.00
2441;DHT22;1231;53.988;9.470;2022-12-29T17:22:56;8.00;86.90
2441;DHT22;1231;53.988;9.470;2022-12-29T17:25:30;8.00;86.90
2441;DHT22;1231;53.988;9.470;2022-12-29T17:28:22;8.00;86.90
2441;DHT22;1231;53.988;9.470;2022-12-29T17:30:58;7.90;86.90
2441;DHT22;1231;53.988;9.470;2022-12-29T17:33:36;7.90;86.90
2441;DHT22;1231;53.988;9.470;2022-12-29T17:36:07;8.00;86.90
2441;DHT22;1231;53.988;9.470;2022-12-29T17:38:38;8.00;87.00
2441;DHT22;1231;53.988;9.470;2022-12-29T17:41:13;8.00;87.00
2441;DHT22;1231;53.988;9.470;2022-12-29T17:43:44;8.00;87.20
2441;DHT22;1231;53.988;9.470;2022-12-29T17:46:14;8.10;87.30
2441;DHT22;1231;53.988;9.470;2022-12-29T17:48:45;8.20;87.40
2441;DHT22;1231;53.988;9.470;2022-12-29T17:51:16;8.20;87.50
2441;DHT22;1231;53.988;9.470;2022-12-29T17:53:47;8.30;87.50
2441;DHT22;1231;53.988;9.470;2022-12-29T17:56:18;8.30;87.60
2441;DHT22;1231;53.988;9.470;2022-12-29T17:58:49;8.40;87.70
2441;DHT22;1231;53.988;9.470;2022-12-29T18:01:20;8.50;87.90
2441;DHT22;1231;53.988;9.470;2022-12-29T18:03:51;8.50;88.00
2441;DHT22;1231;53.988;9.470;2022-12-29T18:06:21;8.60;88.10
2441;DHT22;1231;53.988;9.470;2022-12-29T18:08:52;8.70;88.10
2441;DHT22;1231;53.988;9.470;2022-12-29T18:11:26;8.70;88.20
2441;DHT22;1231;53.988;9.470;2022-12-29T18:13:56;8.80;88.20
2441;DHT22;1231;53.988;9.470;2022-12-29T18:16:27;8.90;88.20
2441;DHT22;1231;53.988;9.470;2022-12-29T18:18:57;8.90;88.20
2441;DHT22;1231;53.988;9.470;2022-12-29T18:21:28;9.00;88.00
2441;DHT22;1231;53.988;9.470;2022-12-29T18:23:58;9.00;88.00
2441;DHT22;1231;53.988;9.470;2022-12-29T18:26:29;9.00;88.00
2441;DHT22;1231;53.988;9.470;2022-12-29T18:29:05;9.10;87.90
2441;DHT22;1231;53.988;9.470;2022-12-29T18:31:36;9.10;87.90
2441;DHT22;1231;53.988;9.470;2022-12-29T18:34:13;9.10;87.80
2441;DHT22;1231;53.988;9.470;2022-12-29T18:36:44;9.20;87.80